createdAt,value
2019-05-13T00:00:23.390Z,0.40
2019-05-13T00:02:48.242Z,0.50
2019-05-13T00:05:15.300Z,0.40
2019-05-13T00:07:43.820Z,0.80
2019-05-13T00:10:09.486Z,0.63
2019-05-13T00:12:36.540Z,0.63
2019-05-13T00:15:03.837Z,0.50
2019-05-13T00:17:30.736Z,0.70
2019-05-13T00:19:57.782Z,0.50
2019-05-13T00:22:24.836Z,0.90
2019-05-13T00:24:54.131Z,0.80
2019-05-13T00:27:19.031Z,0.60
2019-05-13T00:29:46.080Z,0.73
2019-05-13T00:32:13.529Z,1.27
2019-05-13T00:34:40.226Z,0.80
2019-05-13T00:37:11.495Z,0.80
2019-05-13T00:39:34.377Z,0.80
2019-05-13T00:42:03.756Z,0.60
2019-05-13T00:44:28.682Z,0.80
2019-05-13T00:46:55.733Z,0.80
2019-05-13T00:49:23.847Z,0.90
2019-05-13T00:51:49.928Z,0.60
2019-05-13T00:54:16.976Z,1.00
2019-05-13T00:56:44.432Z,0.90
2019-05-13T00:59:14.007Z,0.77
2019-05-13T01:01:38.645Z,0.50
2019-05-13T01:04:06.195Z,0.90
2019-05-13T01:06:34.103Z,0.83
2019-05-13T01:09:00.399Z,0.60
2019-05-13T01:11:27.342Z,0.73
2019-05-13T01:13:54.395Z,0.60
2019-05-13T01:16:23.460Z,0.60
2019-05-13T01:18:48.590Z,0.60
2019-05-13T01:21:15.642Z,0.70
2019-05-13T01:23:43.821Z,0.60
2019-05-13T01:26:17.729Z,0.60
2019-05-13T01:28:49.268Z,0.53
2019-05-13T01:31:21.073Z,0.57
2019-05-13T01:33:48.085Z,0.33
2019-05-13T01:36:15.131Z,0.40
2019-05-13T01:38:43.579Z,0.50
2019-05-13T01:41:09.336Z,0.50
2019-05-13T01:43:36.381Z,0.40
2019-05-13T01:46:04.551Z,0.47
2019-05-13T01:48:30.580Z,0.30
2019-05-13T01:50:57.634Z,0.60
2019-05-13T01:53:24.677Z,0.23
2019-05-13T01:55:53.305Z,0.33
2019-05-13T01:58:18.882Z,0.63
2019-05-13T02:00:45.929Z,0.40
2019-05-13T02:03:14.533Z,0.37
2019-05-13T02:05:40.125Z,0.50
2019-05-13T02:08:07.172Z,0.90
2019-05-13T02:10:40.063Z,0.40
2019-05-13T02:13:07.106Z,0.40
2019-05-13T02:15:34.155Z,0.63
2019-05-13T02:18:01.210Z,0.40
2019-05-13T02:20:28.252Z,0.60
2019-05-13T02:22:55.299Z,0.40
2019-05-13T02:25:23.726Z,0.30
2019-05-13T02:27:49.504Z,0.50
2019-05-13T02:30:16.746Z,0.30
2019-05-13T02:32:43.699Z,0.47
2019-05-13T02:35:14.023Z,0.23
2019-05-13T02:37:37.898Z,0.50
2019-05-13T02:40:04.953Z,0.40
2019-05-13T02:42:33.839Z,0.40
2019-05-13T02:45:03.696Z,0.40
2019-05-13T02:47:28.038Z,0.30
2019-05-13T02:50:00.637Z,0.50
2019-05-13T02:52:23.979Z,0.43
2019-05-13T02:54:52.749Z,0.30
2019-05-13T02:57:23.316Z,0.50
2019-05-13T02:59:51.938Z,0.30
2019-05-13T03:02:16.779Z,0.40
2019-05-13T03:04:45.160Z,0.50
2019-05-13T03:07:12.209Z,0.40
2019-05-13T03:09:42.278Z,0.50
2019-05-13T03:12:13.019Z,0.47
2019-05-13T03:14:37.356Z,0.40
2019-05-13T03:17:05.013Z,0.40
2019-05-13T03:19:33.200Z,0.40
2019-05-13T03:22:03.112Z,0.50
2019-05-13T03:24:28.418Z,0.50
2019-05-13T03:26:55.462Z,0.27
2019-05-13T03:29:22.530Z,0.40
2019-05-13T03:31:54.842Z,0.60
2019-05-13T03:34:16.845Z,0.40
2019-05-13T03:36:45.881Z,0.40
2019-05-13T03:39:16.307Z,0.33
2019-05-13T03:41:42.369Z,0.70
2019-05-13T03:44:08.181Z,0.50
2019-05-13T03:46:35.232Z,0.50
2019-05-13T03:49:02.571Z,0.40
2019-05-13T03:51:32.465Z,0.40
2019-05-13T03:53:56.476Z,0.40
2019-05-13T03:56:24.015Z,0.47
2019-05-13T03:58:53.694Z,0.50
2019-05-13T04:01:35.334Z,0.40
2019-05-13T04:04:03.254Z,0.40
2019-05-13T04:06:32.050Z,0.33
2019-05-13T04:09:15.729Z,0.43
2019-05-13T04:11:23.701Z,0.47
2019-05-13T04:13:52.612Z,0.57
2019-05-13T04:16:17.940Z,0.40
2019-05-13T04:18:44.937Z,0.50
2019-05-13T04:21:13.227Z,0.60
2019-05-13T04:23:42.344Z,0.40
2019-05-13T04:26:06.398Z,0.70
2019-05-13T04:28:34.467Z,0.50
2019-05-13T04:31:03.535Z,0.50
2019-05-13T04:33:28.707Z,0.40
2019-05-13T04:35:56.070Z,0.30
2019-05-13T04:38:24.648Z,0.70
2019-05-13T04:40:52.825Z,2.07
2019-05-13T04:43:18.849Z,0.90
2019-05-13T04:45:45.902Z,2.80
2019-05-13T04:48:13.091Z,0.70
2019-05-13T04:50:42.951Z,0.80
2019-05-13T04:53:07.661Z,0.97
2019-05-13T04:55:34.704Z,0.80
2019-05-13T04:58:03.480Z,1.00
2019-05-13T05:00:35.971Z,1.70
2019-05-13T05:03:07.522Z,0.97
2019-05-13T05:05:42.030Z,0.90
2019-05-13T05:08:13.459Z,1.00
2019-05-13T05:10:43.314Z,1.20
2019-05-13T05:13:16.511Z,0.80
2019-05-13T05:16:02.900Z,1.33
2019-05-13T05:18:32.694Z,1.20
2019-05-13T05:21:03.975Z,0.70
2019-05-13T05:23:33.070Z,1.00
2019-05-13T05:26:02.161Z,0.80
2019-05-13T05:28:35.149Z,1.20
2019-05-13T05:31:06.967Z,0.90
2019-05-13T05:33:41.163Z,0.77
2019-05-13T05:36:12.888Z,0.90
2019-05-13T05:38:39.938Z,1.03
2019-05-13T05:41:07.032Z,0.90
2019-05-13T05:43:34.132Z,0.67
2019-05-13T05:46:01.761Z,0.60
2019-05-13T05:48:28.433Z,0.70
2019-05-13T05:50:55.483Z,0.70
2019-05-13T05:53:23.150Z,0.37
2019-05-13T05:55:51.746Z,1.03
2019-05-13T05:58:17.761Z,0.73
2019-05-13T06:00:44.911Z,0.77
2019-05-13T06:03:13.989Z,0.70
2019-05-13T06:05:41.925Z,0.50
2019-05-13T06:08:07.998Z,0.43
2019-05-13T06:10:46.302Z,0.50
2019-05-13T06:13:02.205Z,0.70
2019-05-13T06:15:31.342Z,0.37
2019-05-13T06:17:56.553Z,0.50
2019-05-13T06:20:23.600Z,0.60
2019-05-13T06:22:51.596Z,0.70
2019-05-13T06:25:23.014Z,0.20
2019-05-13T06:27:46.229Z,0.40
2019-05-13T06:30:13.281Z,0.43
2019-05-13T06:32:41.892Z,0.47
2019-05-13T06:35:08.300Z,0.13
2019-05-13T06:37:35.347Z,0.47
2019-05-13T06:40:03.113Z,0.57
2019-05-13T06:42:32.268Z,0.70
2019-05-13T06:44:57.256Z,0.60
2019-05-13T06:47:24.514Z,0.60
2019-05-13T06:49:51.695Z,0.60
2019-05-13T06:52:21.149Z,0.50
2019-05-13T06:54:45.811Z,0.57
2019-05-13T06:57:13.578Z,0.60
2019-05-13T06:59:42.264Z,0.60
2019-05-13T07:02:09.311Z,0.80
2019-05-13T07:04:36.674Z,0.77
2019-05-13T07:07:12.305Z,0.70
2019-05-13T07:09:32.306Z,0.60
2019-05-13T07:11:58.043Z,0.73
2019-05-13T07:14:25.168Z,0.93
2019-05-13T07:16:52.552Z,0.63
2019-05-13T07:19:19.369Z,0.50
2019-05-13T07:21:46.423Z,0.90
2019-05-13T07:24:13.892Z,0.60
2019-05-13T07:26:42.914Z,0.53
2019-05-13T07:29:12.636Z,0.80
2019-05-13T07:31:37.684Z,0.87
2019-05-13T07:34:04.686Z,0.70
2019-05-13T07:36:32.192Z,0.80
2019-05-13T07:39:01.414Z,0.60
2019-05-13T07:41:38.313Z,0.97
2019-05-13T07:43:53.648Z,1.70
2019-05-13T07:46:21.839Z,2.57
2019-05-13T07:48:47.742Z,0.83
2019-05-13T07:51:14.790Z,1.00
2019-05-13T07:53:42.557Z,1.60
2019-05-13T07:56:11.777Z,1.40
2019-05-13T07:58:37.781Z,2.10
2019-05-13T08:01:04.217Z,1.00
2019-05-13T08:03:31.805Z,1.73
2019-05-13T08:05:58.412Z,1.37
2019-05-13T08:08:25.459Z,0.87
2019-05-13T08:10:54.004Z,0.70
2019-05-13T08:13:22.738Z,1.97
2019-05-13T08:15:54.310Z,2.63
2019-05-13T08:18:19.482Z,2.40
2019-05-13T08:20:47.052Z,1.80
2019-05-13T08:23:14.107Z,2.97
2019-05-13T08:25:42.384Z,2.17
2019-05-13T08:28:12.348Z,1.83
2019-05-13T08:30:37.256Z,1.77
2019-05-13T08:33:25.899Z,2.40
2019-05-13T08:35:58.545Z,5.40
2019-05-13T08:38:22.098Z,3.30
2019-05-13T08:40:47.279Z,2.03
2019-05-13T08:43:14.352Z,2.07
2019-05-13T08:45:42.069Z,2.27
2019-05-13T08:48:08.655Z,2.63
2019-05-13T08:50:35.700Z,1.00
2019-05-13T08:53:02.747Z,2.90
2019-05-13T08:55:32.037Z,1.60
2019-05-13T08:57:56.952Z,1.30
2019-05-13T09:00:31.827Z,1.10
2019-05-13T09:02:56.984Z,2.00
2019-05-13T09:05:24.035Z,1.87
2019-05-13T09:07:51.785Z,2.27
2019-05-13T09:10:18.236Z,1.37
2019-05-13T09:12:45.281Z,2.03
2019-05-13T09:15:12.329Z,2.27
2019-05-13T09:17:39.383Z,2.07
2019-05-13T09:20:06.428Z,1.63
2019-05-13T09:22:33.475Z,1.83
2019-05-13T09:25:02.107Z,1.40
2019-05-13T09:27:28.408Z,1.73
2019-05-13T09:29:58.217Z,2.27
2019-05-13T09:32:26.019Z,2.03
2019-05-13T09:34:54.165Z,1.73
2019-05-13T09:37:22.374Z,1.17
2019-05-13T09:39:51.673Z,2.60
2019-05-13T09:42:17.234Z,1.40
2019-05-13T09:44:45.003Z,1.30
2019-05-13T09:47:12.971Z,1.40
2019-05-13T09:49:42.037Z,1.57
2019-05-13T09:52:08.541Z,0.90
2019-05-13T09:54:36.881Z,1.00
2019-05-13T09:57:04.557Z,0.80
2019-05-13T09:59:34.444Z,1.40
2019-05-13T10:02:03.280Z,1.03
2019-05-13T10:04:31.778Z,1.00
2019-05-13T10:07:01.550Z,1.77
2019-05-13T10:09:48.266Z,1.83
2019-05-13T10:12:14.088Z,1.20
2019-05-13T10:14:41.547Z,1.10
2019-05-13T10:17:09.434Z,1.37
2019-05-13T10:19:41.711Z,2.40
2019-05-13T10:22:06.525Z,5.47
2019-05-13T10:24:34.338Z,1.43
2019-05-13T10:27:02.532Z,1.03
2019-05-13T10:29:31.644Z,1.00
2019-05-13T10:31:57.607Z,1.03
2019-05-13T10:34:25.397Z,1.00
2019-05-13T10:36:53.638Z,1.47
2019-05-13T10:39:22.382Z,1.93
2019-05-13T10:41:52.117Z,1.40
2019-05-13T10:44:17.443Z,1.10
2019-05-13T10:46:44.485Z,0.93
2019-05-13T10:49:12.248Z,1.00
2019-05-13T10:51:38.735Z,1.10
2019-05-13T10:54:05.830Z,1.00
2019-05-13T10:56:33.549Z,0.77
2019-05-13T10:59:02.578Z,1.03
2019-05-13T11:01:29.184Z,0.77
2019-05-13T11:03:56.950Z,1.13
2019-05-13T11:06:24.781Z,1.10
2019-05-13T11:08:53.552Z,0.90
2019-05-13T11:11:21.846Z,2.23
2019-05-13T11:16:15.721Z,1.13
2019-05-13T11:18:43.935Z,1.20
2019-05-13T11:21:13.037Z,1.00
2019-05-13T11:23:42.001Z,0.87
2019-05-13T11:26:10.106Z,1.10
2019-05-13T11:28:37.464Z,1.00
2019-05-13T11:31:05.075Z,1.20
2019-05-13T11:33:32.591Z,1.17
2019-05-13T11:35:59.635Z,1.20
2019-05-13T11:38:27.660Z,1.10
2019-05-13T11:40:56.742Z,1.10
2019-05-13T11:43:28.007Z,1.23
2019-05-13T11:45:53.278Z,0.80
2019-05-13T11:48:23.588Z,1.02
2019-05-13T11:50:51.440Z,1.10
2019-05-13T11:53:34.486Z,0.90
2019-05-13T11:55:46.692Z,1.30
2019-05-13T11:58:14.330Z,1.10
2019-05-13T12:00:45.275Z,0.95
2019-05-13T12:03:12.734Z,1.05
2019-05-13T12:05:42.153Z,1.20
2019-05-13T12:08:12.521Z,1.10
2019-05-13T12:10:37.366Z,1.00
2019-05-13T12:13:04.923Z,1.00
2019-05-13T12:15:45.575Z,1.00
2019-05-13T12:18:02.890Z,1.00
2019-05-13T12:20:32.366Z,1.10
2019-05-13T12:22:57.117Z,1.00
2019-05-13T12:25:24.891Z,0.88
2019-05-13T12:27:52.616Z,1.08
2019-05-13T12:30:22.721Z,0.82
2019-05-13T12:32:48.689Z,0.70
2019-05-13T12:35:16.039Z,0.85
2019-05-13T12:37:43.145Z,1.00
2019-05-13T12:40:10.247Z,0.80
2019-05-13T12:42:43.133Z,1.58
2019-05-13T12:45:09.656Z,0.80
2019-05-13T12:47:31.589Z,0.80
2019-05-13T12:49:58.604Z,1.10
2019-05-13T12:52:25.691Z,0.85
2019-05-13T12:54:53.092Z,0.80
2019-05-13T12:57:23.189Z,0.90
2019-05-13T12:59:47.145Z,0.80
2019-05-13T13:02:14.188Z,0.90
2019-05-13T13:05:06.838Z,0.73
2019-05-13T13:07:08.388Z,0.85
2019-05-13T13:09:35.441Z,0.90
2019-05-13T13:12:02.484Z,0.70
2019-05-13T13:14:36.251Z,0.88
2019-05-13T13:16:56.846Z,0.85
2019-05-13T13:19:23.937Z,0.80
2019-05-13T13:21:53.966Z,0.70
2019-05-13T13:24:23.647Z,0.70
2019-05-13T13:26:47.962Z,0.70
2019-05-13T13:29:15.684Z,0.80
2019-05-13T13:31:43.458Z,0.80
2019-05-13T13:34:13.613Z,0.73
2019-05-13T13:36:37.942Z,0.90
2019-05-13T13:39:05.036Z,1.00
2019-05-13T13:41:32.772Z,0.80
2019-05-13T13:44:05.553Z,0.75
2019-05-13T13:46:42.255Z,0.93
2019-05-13T13:48:55.741Z,1.20
2019-05-13T13:51:26.630Z,1.40
2019-05-13T13:53:56.115Z,1.10
2019-05-13T13:56:17.358Z,0.80
2019-05-13T13:58:44.445Z,1.00
2019-05-13T14:01:17.831Z,1.17
2019-05-13T14:03:38.792Z,0.90
2019-05-13T14:06:06.460Z,0.95
2019-05-13T14:06:28.556Z,1.37
2019-05-13T14:08:33.009Z,1.05
2019-05-13T14:11:02.114Z,0.90
2019-05-13T14:13:27.098Z,1.30
2019-05-13T14:15:54.146Z,0.82
2019-05-13T14:18:26.362Z,0.95
2019-05-13T14:20:48.349Z,0.82
2019-05-13T14:23:15.394Z,1.10
2019-05-13T14:25:42.451Z,1.00
2019-05-13T14:28:09.496Z,1.00
2019-05-13T14:30:36.663Z,1.00
2019-05-13T14:33:03.797Z,0.95
2019-05-13T14:35:30.843Z,0.80
2019-05-13T14:37:57.893Z,1.20
2019-05-13T14:40:24.944Z,0.90
2019-05-13T14:42:52.757Z,0.55
2019-05-13T14:45:23.038Z,0.65
2019-05-13T14:47:46.369Z,0.80
2019-05-13T14:50:13.563Z,0.75
2019-05-13T14:52:41.683Z,0.70
2019-05-13T14:55:09.386Z,0.98
2019-05-13T14:57:36.429Z,1.00
2019-05-13T15:00:03.688Z,0.93
2019-05-13T15:02:32.101Z,1.27
2019-05-13T15:04:57.883Z,1.95
2019-05-13T15:07:24.931Z,2.25
2019-05-13T15:09:53.007Z,1.33
2019-05-13T15:12:21.641Z,1.05
2019-05-13T15:14:53.900Z,0.90
2019-05-13T15:17:34.693Z,1.05
2019-05-13T15:20:01.954Z,1.20
2019-05-13T15:22:31.607Z,0.98
2019-05-13T15:24:56.089Z,0.98
2019-05-13T15:27:23.131Z,1.10
2019-05-13T15:29:51.599Z,1.10
2019-05-13T15:32:17.342Z,0.95
2019-05-13T15:34:44.482Z,0.90
2019-05-13T15:37:12.350Z,1.00
2019-05-13T15:39:39.501Z,1.45
2019-05-13T15:42:06.652Z,1.33
2019-05-13T15:44:33.803Z,1.30
2019-05-13T15:47:02.484Z,1.08
2019-05-13T15:49:28.003Z,1.12
2019-05-13T15:51:58.439Z,0.85
2019-05-13T15:54:25.505Z,0.90
2019-05-13T15:56:52.632Z,1.08
2019-05-13T15:59:21.567Z,1.00
2019-05-13T16:01:52.551Z,0.90
2019-05-13T16:04:18.589Z,1.15
2019-05-13T16:06:45.708Z,0.98
2019-05-13T16:09:12.762Z,1.10
2019-05-13T16:11:41.432Z,0.85
2019-05-13T16:14:06.988Z,1.10
2019-05-13T16:16:34.038Z,1.10
2019-05-13T16:19:01.053Z,0.90
2019-05-13T16:21:29.103Z,1.02
2019-05-13T16:23:56.514Z,0.93
2019-05-13T16:26:27.082Z,1.60
2019-05-13T16:28:52.224Z,1.40
2019-05-13T16:31:18.187Z,1.10
2019-05-13T16:33:45.322Z,1.37
2019-05-13T16:36:12.816Z,1.20
2019-05-13T16:38:41.663Z,1.25
2019-05-13T16:41:07.493Z,1.20
2019-05-13T16:43:34.535Z,1.40
2019-05-13T16:46:01.597Z,1.30
2019-05-13T16:48:28.638Z,1.10
2019-05-13T16:50:55.688Z,1.30
2019-05-13T16:53:25.848Z,1.10
2019-05-13T16:55:51.034Z,1.20
2019-05-13T16:58:18.942Z,1.02
2019-05-13T17:00:47.632Z,1.33
2019-05-13T17:03:14.724Z,1.20
2019-05-13T17:05:43.412Z,1.37
2019-05-13T17:08:10.455Z,1.10
2019-05-13T17:11:02.089Z,1.15
2019-05-13T17:13:31.529Z,1.35
2019-05-13T17:15:58.534Z,1.33
2019-05-13T17:18:26.914Z,1.30
2019-05-13T17:20:53.967Z,1.30
2019-05-13T17:23:21.424Z,1.20
2019-05-13T17:25:52.081Z,2.00
2019-05-13T17:28:17.156Z,21.02
2019-05-13T17:30:44.205Z,12.13
2019-05-13T17:33:11.851Z,5.90
2019-05-13T17:35:41.866Z,21.77
2019-05-13T17:38:07.609Z,19.05
2019-05-13T17:40:34.769Z,8.60
2019-05-13T17:43:01.805Z,6.80
2019-05-13T17:45:31.161Z,3.25
2019-05-13T17:47:56.008Z,1.62
2019-05-13T17:50:23.049Z,2.05
2019-05-13T17:52:51.966Z,2.28
2019-05-13T17:55:22.289Z,2.25
2019-05-13T17:57:47.655Z,1.58
2019-05-13T18:00:16.990Z,1.98
2019-05-13T18:02:44.137Z,1.80
2019-05-13T18:05:17.794Z,1.67
2019-05-13T18:07:44.834Z,1.70
2019-05-13T18:10:14.238Z,1.30
2019-05-13T18:12:39.087Z,2.00
2019-05-13T18:15:06.104Z,2.47
2019-05-13T18:17:33.185Z,1.42
2019-05-13T18:20:02.416Z,2.35
2019-05-13T18:22:31.202Z,1.95
2019-05-13T18:25:03.629Z,2.15
2019-05-13T18:27:34.178Z,2.50
2019-05-13T18:30:15.266Z,2.97
2019-05-13T18:32:43.324Z,2.42
2019-05-13T18:35:21.866Z,2.80
2019-05-13T18:38:02.373Z,3.58
2019-05-13T18:40:31.661Z,3.12
2019-05-13T18:43:01.900Z,3.10
2019-05-13T18:45:28.015Z,6.15
2019-05-13T18:47:55.215Z,2.70
2019-05-13T18:50:22.243Z,4.00
2019-05-13T18:52:49.310Z,2.03
2019-05-13T18:55:17.549Z,1.90
2019-05-13T18:57:44.633Z,2.55
2019-05-13T19:00:13.935Z,3.35
2019-05-13T19:02:41.906Z,3.25
2019-05-13T19:05:11.967Z,2.25
2019-05-13T19:07:41.831Z,3.12
2019-05-13T19:10:11.483Z,1.52
2019-05-13T19:12:37.685Z,3.83
2019-05-13T19:15:07.048Z,4.80
2019-05-13T19:17:36.336Z,5.60
2019-05-13T19:20:05.854Z,7.22
2019-05-13T19:22:34.636Z,4.62
2019-05-13T19:25:27.201Z,6.03
2019-05-13T19:27:57.864Z,3.60
2019-05-13T19:30:26.242Z,8.68
2019-05-13T19:32:53.273Z,4.85
2019-05-13T19:35:26.726Z,3.97
2019-05-13T19:37:53.733Z,7.62
2019-05-13T19:40:22.094Z,4.93
2019-05-13T19:42:51.065Z,3.58
2019-05-13T19:45:17.040Z,1.65
2019-05-13T19:47:44.085Z,1.67
2019-05-13T19:50:13.073Z,1.60
2019-05-13T19:52:41.501Z,1.20
2019-05-13T19:55:09.016Z,1.10
2019-05-13T19:57:36.163Z,1.15
2019-05-13T20:00:09.224Z,1.20
2019-05-13T20:02:31.701Z,1.30
2019-05-13T20:05:01.713Z,1.08
2019-05-13T20:07:31.690Z,0.80
2019-05-13T20:09:56.219Z,0.90
2019-05-13T20:12:33.890Z,1.17
2019-05-13T20:15:01.548Z,1.10
2019-05-13T20:17:32.083Z,1.20
2019-05-13T20:20:02.111Z,1.40
2019-05-13T20:22:28.583Z,1.00
2019-05-13T20:24:57.356Z,0.93
2019-05-13T20:27:24.510Z,0.90
2019-05-13T20:29:51.658Z,0.93
2019-05-13T20:32:22.261Z,0.93
2019-05-13T20:34:48.420Z,1.10
2019-05-13T20:37:15.437Z,0.98
2019-05-13T20:39:42.616Z,1.00
2019-05-13T20:42:09.613Z,1.10
2019-05-13T20:44:36.715Z,1.20
2019-05-13T20:47:04.279Z,1.00
2019-05-13T20:49:31.411Z,0.80
2019-05-13T20:51:58.478Z,1.20
2019-05-13T20:54:25.522Z,0.90
2019-05-13T20:56:52.567Z,0.70
2019-05-13T20:59:21.605Z,0.80
2019-05-13T21:02:07.827Z,0.90
2019-05-13T21:04:34.916Z,1.00
2019-05-13T21:07:02.291Z,0.90
2019-05-13T21:09:31.496Z,1.00
2019-05-13T21:11:56.272Z,1.00
2019-05-13T21:14:23.289Z,0.83
2019-05-13T21:16:50.363Z,0.90
2019-05-13T21:19:17.413Z,0.80
2019-05-13T21:21:45.464Z,0.90
2019-05-13T21:24:12.529Z,0.60
2019-05-13T21:26:41.834Z,0.70
2019-05-13T21:29:06.728Z,0.90
2019-05-13T21:31:33.879Z,0.90
2019-05-13T21:34:01.423Z,0.90
2019-05-13T21:36:28.084Z,0.87
2019-05-13T21:38:55.127Z,0.70
2019-05-13T21:41:22.178Z,1.00
2019-05-13T21:43:49.328Z,0.70
2019-05-13T21:46:16.324Z,0.80
2019-05-13T21:48:43.424Z,0.90
2019-05-13T21:51:13.257Z,1.00
2019-05-13T21:53:37.593Z,1.00
2019-05-13T21:56:04.682Z,0.90
2019-05-13T21:58:31.722Z,0.77
2019-05-13T22:01:01.574Z,0.93
2019-05-13T22:03:27.762Z,0.95
2019-05-13T22:05:54.817Z,0.97
2019-05-13T22:08:23.295Z,1.10
2019-05-13T22:10:52.376Z,0.85
2019-05-13T22:13:17.500Z,1.00
2019-05-13T22:15:44.543Z,1.17
2019-05-13T22:18:11.592Z,1.13
2019-05-13T22:20:47.376Z,1.00
2019-05-13T22:23:06.610Z,1.00
2019-05-13T22:25:33.659Z,1.10
2019-05-13T22:28:01.200Z,1.20
2019-05-13T22:30:27.875Z,1.10
2019-05-13T22:32:55.112Z,1.10
2019-05-13T22:35:23.807Z,1.20
2019-05-13T22:37:51.192Z,1.20
2019-05-13T22:40:18.005Z,1.17
2019-05-13T22:42:48.633Z,1.03
2019-05-13T22:45:15.686Z,1.00
2019-05-13T22:47:42.729Z,1.13
2019-05-13T22:50:11.399Z,1.17
2019-05-13T22:52:37.031Z,1.30
2019-05-13T22:55:04.903Z,1.37
2019-05-13T22:57:31.947Z,1.10
2019-05-13T22:59:58.993Z,1.00
2019-05-13T23:02:26.051Z,0.97
2019-05-13T23:04:53.093Z,1.10
2019-05-13T23:07:22.178Z,0.90
2019-05-13T23:09:47.251Z,0.90
2019-05-13T23:12:14.345Z,0.97
2019-05-13T23:14:41.457Z,0.80
2019-05-13T23:17:08.541Z,0.90
2019-05-13T23:19:35.589Z,1.00
2019-05-13T23:22:04.795Z,0.90
2019-05-13T23:24:31.836Z,0.90
2019-05-13T23:26:58.841Z,0.80
2019-05-13T23:29:25.939Z,0.80
2019-05-13T23:31:54.626Z,0.60
2019-05-13T23:34:22.311Z,0.80
2019-05-13T23:36:48.821Z,0.97
2019-05-13T23:39:15.868Z,0.93
2019-05-13T23:41:42.923Z,0.80
2019-05-13T23:44:23.790Z,0.83
2019-05-13T23:46:39.164Z,0.80
2019-05-13T23:49:06.221Z,0.80
2019-05-13T23:51:33.684Z,0.80
2019-05-13T23:54:01.611Z,0.80
2019-05-13T23:56:27.769Z,1.07
2019-05-13T23:58:54.833Z,0.83
